Flight Track Log - Related Links

Times and Time Zones

All times are in EDT time to prevent confusion due to time zone crossing. See the AAY460 flight status page for this flight to view local times or setup timezone preferences in your user account.

Time Position Orientation Groundspeed Altitude Reporting Facility
EDT Latitude Longitude Course Direction KTS MPH feet Rate Location/Type
Mon 06:14:14 PM 36.1164 -115.1442 61° Northeast 197 227 2,900  Level Los Angeles Center
Mon 06:14:59 PM 36.1386 -115.0944 61° Northeast 229 264 4,300 2,075 Climbing Los Angeles Center
Mon 06:16:01 PM 36.1394 -115.0022 89° East 267 307 6,600 2,323 Climbing Los Angeles Center
Mon 06:17:03 PM 36.1519 -114.9072 81° East 277 319 9,100 2,064 Climbing Los Angeles Center
Mon 06:18:06 PM 36.1625 -114.8103 82° East 288 331 10,900 1,488 Climbing Los Angeles Center
Mon 06:19:08 PM 36.1869 -114.6958 75° East 329 379 12,200 1,935 Climbing Los Angeles Center
Mon 06:20:10 PM 36.1867 -114.5406 90° East 374 430 14,900 2,226 Climbing Los Angeles Center
Mon 06:21:12 PM 36.1933 -114.4053 86° East 392 451 16,800 1,790 Climbing Los Angeles Center
Mon 06:22:14 PM 36.1942 -114.2619 90° East 410 472 18,600 1,597 Climbing Los Angeles Center
Mon 06:23:16 PM 36.2106 -114.1178 82° East 419 482 20,100 1,403 Climbing Los Angeles Center
Mon 06:24:18 PM 36.2250 -113.9694 83° East 433 498 21,500 1,516 Climbing Los Angeles Center
Mon 06:26:22 PM 36.2639 -113.6336 82° East 449 517 24,800 1,604 Climbing Los Angeles Center
Mon 06:27:25 PM 36.2831 -113.4786 81° East 453 521 26,500 1,584 Climbing Los Angeles Center
Mon 06:28:27 PM 36.3003 -113.3256 82° East 449 517 28,100 1,258 Climbing Los Angeles Center
Mon 06:29:29 PM 36.3278 -113.1831 76° East 447 514 29,100 1,258 Climbing Los Angeles Center
Mon 06:30:31 PM 36.3886 -113.0144 66° East 447 514 30,700 919 Climbing Los Angeles Center
Mon 06:31:33 PM 36.4392 -112.8800 65° Northeast 437 503 31,000 145 Climbing Los Angeles Center
Mon 06:32:35 PM 36.4900 -112.7453 65° Northeast 436 502 31,000  Level Los Angeles Center
Mon 06:33:38 PM 36.5400 -112.6114 65° Northeast 431 496 31,000  Level Los Angeles Center
Mon 06:34:40 PM 36.5892 -112.4753 66° East 431 496 31,000  Level Los Angeles Center
Mon 06:35:42 PM 36.6378 -112.3403 66° East 430 495 31,000  Level Los Angeles Center
Mon 06:36:44 PM 36.6958 -112.1764 66° East 430 495 31,000  Level Los Angeles Center
Mon 06:37:46 PM 36.7469 -112.0406 65° Northeast 433 498 31,000  Level Los Angeles Center
Mon 06:38:48 PM 36.7933 -111.9075 66° East 429 494 31,000  Level Los Angeles Center
Mon 06:39:50 PM 36.8422 -111.7750 65° Northeast 427 491 31,000  Level Los Angeles Center
Mon 06:40:53 PM 36.8903 -111.6397 66° East 426 490 31,000  Level Los Angeles Center
Mon 06:41:55 PM 36.9486 -111.4753 66° East 429 494 31,000  Level Los Angeles Center
Mon 06:42:57 PM 36.9969 -111.3394 66° East 430 495 31,000  Level Los Angeles Center
Mon 06:43:59 PM 37.0444 -111.2067 66° East 424 488 31,000  Level Los Angeles Center
Mon 06:45:24 PM 37.1081 -111.0178 67° East 424 488 31,000  Level Denver Center
Mon 06:46:25 PM 37.1553 -110.8817 66° East 427 491 31,000  Level Denver Center
Mon 06:47:27 PM 37.2025 -110.7450 67° East 430 495 31,000  Level Denver Center
Mon 06:48:29 PM 37.2586 -110.5800 67° East 429 494 31,000  Level Denver Center
Mon 06:49:30 PM 37.3078 -110.4442 65° Northeast 429 494 31,000  Level Denver Center
Mon 06:50:32 PM 37.3528 -110.3042 68° East 430 495 31,000  Level Denver Center
Mon 06:51:34 PM 37.4033 -110.1631 66° East 430 495 31,000  Level Denver Center
Mon 06:52:35 PM 37.4447 -110.0286 69° East 430 495 31,000  Level Denver Center
Mon 06:53:37 PM 37.4831 -109.9203 66° East 426 490 31,000  Level Denver Center
Mon 06:54:38 PM 37.5333 -109.7672 67° East 421 484 31,000  Level Denver Center
Mon 06:55:40 PM 37.5839 -109.6206 66° East 409 471 31,000  Level Denver Center
Mon 06:56:42 PM 37.6311 -109.4708 68° East 409 471 31,000 49 Level Denver Center
Mon 06:57:43 PM 37.6753 -109.3453 66° East 409 471 31,100 293 Climbing Denver Center
Mon 06:58:45 PM 37.7225 -109.1878 69° East 426 490 31,600 629 Climbing Denver Center
Mon 06:59:47 PM 37.7703 -109.0569 65° Northeast 426 490 32,400 683 Climbing Denver Center
Mon 07:00:48 PM 37.8092 -108.9197 70° East 428 493 33,000 293 Climbing Denver Center
Mon 07:01:50 PM 37.8442 -108.7575 75° East 428 493 33,000  Level Denver Center
Mon 07:02:52 PM 37.8775 -108.6158 73° East 430 495 33,000  Level Denver Center
Mon 07:03:53 PM 37.9114 -108.4475 76° East 435 501 33,000  Level Denver Center
Mon 07:04:55 PM 37.9428 -108.3072 74° East 435 501 33,000  Level Denver Center
Mon 07:05:57 PM 37.9756 -108.1406 76° East 436 502 33,000  Level Denver Center
Mon 07:06:58 PM 38.0047 -108.0011 75° East 433 498 33,000  Level Denver Center
Mon 07:08:00 PM 38.0339 -107.8614 75° East 431 496 33,000  Level Denver Center
Mon 07:09:02 PM 38.0661 -107.6997 76° East 427 491 33,000  Level Denver Center
Mon 07:10:03 PM 38.0986 -107.5514 74° East 427 491 33,000  Level Denver Center
Mon 07:11:05 PM 38.1244 -107.4136 77° East 425 489 33,000  Level Denver Center
Mon 07:12:07 PM 38.1564 -107.2556 76° East 418 481 33,000  Level Denver Center
Mon 07:13:08 PM 38.1817 -107.1186 77° East 417 480 33,000  Level Denver Center
Mon 07:14:10 PM 38.2114 -106.9792 75° East 413 475 33,000  Level Denver Center
Mon 07:15:12 PM 38.2403 -106.8286 76° East 412 474 33,000  Level Denver Center
Mon 07:16:14 PM 38.2694 -106.6756 76° East 403 464 33,000  Level Denver Center
Mon 07:17:15 PM 38.2950 -106.5450 76° East 397 457 33,000  Level Denver Center
Mon 07:18:17 PM 38.3219 -106.4050 76° East 394 453 33,000  Level Denver Center
Mon 07:19:19 PM 38.3478 -106.2672 77° East 398 458 33,000  Level Denver Center
Mon 07:20:21 PM 38.3744 -106.1244 77° East 401 461 33,000  Level Denver Center
Mon 07:21:22 PM 38.4003 -105.9936 76° East 401 461 33,000  Level Denver Center
Mon 07:22:24 PM 38.4286 -105.8400 77° East 398 458 33,000  Level Denver Center
Mon 07:23:26 PM 38.4533 -105.7161 76° East 398 458 33,000  Level Denver Center
Mon 07:24:28 PM 38.4753 -105.5778 79° East 398 458 33,000  Level Denver Center
Mon 07:25:30 PM 38.5078 -105.4167 75° East 397 457 33,000  Level Denver Center
Mon 07:26:31 PM 38.5303 -105.2797 78° East 395 455 33,000  Level Denver Center
Mon 07:27:33 PM 38.5567 -105.1453 76° East 395 455 33,000 48 Level Denver Center
Mon 07:28:35 PM 38.5797 -105.0081 78° East 395 455 33,100  Climbing Denver Center
Mon 07:29:37 PM 38.6036 -104.8767 77° East 389 448 33,000 -48 Descending Denver Center
Mon 07:30:39 PM 38.6325 -104.7147 77° East 389 448 33,000  Level Denver Center
Mon 07:32:43 PM 38.6803 -104.4400 77° East 395 455 33,000  Level Denver Center
Mon 07:33:45 PM 38.7022 -104.3000 79° East 399 459 33,000  Level Denver Center
Mon 07:35:49 PM 38.7517 -104.0019 78° East 395 455 33,000  Level Denver Center
Mon 07:36:51 PM 38.7781 -103.8708 75° East 395 455 33,000  Level Denver Center
Mon 07:37:53 PM 38.7975 -103.7364 79° East 397 457 33,000  Level Denver Center
Mon 07:38:55 PM 38.8250 -103.5858 77° East 390 449 33,000  Level Denver Center
Mon 07:39:57 PM 38.8400 -103.4492 82° East 399 459 33,000  Level Denver Center
Mon 07:40:58 PM 38.8633 -103.3169 77° East 389 448 33,000  Level Denver Center
Mon 07:42:00 PM 38.8844 -103.1458 81° East 402 463 33,000  Level Denver Center
Mon 07:43:02 PM 38.9067 -103.0083 78° East 398 458 33,000  Level Denver Center
Mon 07:44:04 PM 38.9250 -102.8656 81° East 404 465 33,000  Level Denver Center
Mon 07:45:06 PM 38.9475 -102.7158 79° East 401 461 33,000  Level Denver Center
Mon 07:46:08 PM 38.9631 -102.5783 82° East 407 468 33,000  Level Denver Center
Mon 07:47:10 PM 38.9869 -102.4203 79° East 403 464 33,000  Level Denver Center
Mon 07:48:12 PM 39.0028 -102.2794 82° East 413 475 33,000  Level Denver Center
Mon 07:49:14 PM 39.0264 -102.1169 79° East 414 476 33,000  Level Denver Center
Mon 07:50:16 PM 39.0436 -101.9722 81° East 425 489 33,000  Level Denver Center
Mon 07:51:18 PM 39.0636 -101.8319 80° East 418 481 33,000  Level Denver Center
Mon 07:52:20 PM 39.0858 -101.6603 80° East 421 484 33,000  Level Denver Center
Mon 07:53:23 PM 39.1039 -101.5189 81° East 419 482 33,000  Level Denver Center
Mon 07:54:25 PM 39.1247 -101.3503 81° East 421 484 33,000  Level Denver Center
Mon 07:55:27 PM 39.1425 -101.2100 81° East 421 484 33,000  Level Denver Center
Mon 07:56:29 PM 39.1644 -101.0425 80° East 421 484 33,000  Level Denver Center
Mon 07:57:31 PM 39.1781 -100.8972 83° East 425 489 33,000  Level Denver Center
Mon 07:58:33 PM 39.2017 -100.7275 80° East 427 491 33,000  Level Denver Center
Mon 07:59:35 PM 39.2164 -100.5800 83° East 433 498 33,000  Level Denver Center
Mon 08:00:37 PM 39.2389 -100.4108 80° East 433 498 33,000  Level Denver Center
Mon 08:01:39 PM 39.2550 -100.2603 82° East 439 505 33,000  Level Denver Center
Mon 08:02:41 PM 39.2944 -100.1019 72° East 424 488 33,000  Level Denver Center
Mon 08:03:43 PM 39.3250 -99.9597 74° East 425 489 33,000  Level Denver Center
Mon 08:04:45 PM 39.3564 -99.8442 71° East 426 490 33,000  Level Denver Center
Mon 08:05:47 PM 39.4019 -99.6558 73° East 427 491 33,000  Level Denver Center
Mon 08:06:49 PM 39.4386 -99.5183 71° East 427 491 33,000  Level Denver Center
Mon 08:07:51 PM 39.4750 -99.3578 74° East 428 493 33,000  Level Denver Center
Mon 08:08:53 PM 39.5139 -99.2111 71° East 430 495 33,000  Level Denver Center
Mon 08:09:55 PM 39.5481 -99.0597 74° East 436 502 33,000  Level Denver Center
Mon 08:10:57 PM 39.5856 -98.9117 72° East 436 502 33,000  Level Denver Center
Mon 08:11:59 PM 39.6297 -98.7306 72° East 440 506 33,000  Level Denver Center
Mon 08:13:01 PM 39.6642 -98.5786 74° East 439 505 33,000  Level Denver Center
Mon 08:14:03 PM 39.7008 -98.4264 73° East 440 506 33,000  Level Denver Center
Mon 08:15:16 PM 39.7439 -98.2414 73° East 444 511 33,000  Level Minneapolis Center
Mon 08:16:17 PM 39.7814 -98.0867 72° East 446 513 33,000  Level Minneapolis Center
Mon 08:17:19 PM 39.8175 -97.9344 73° East 446 513 33,000  Level Minneapolis Center
Mon 08:18:21 PM 39.8508 -97.7819 74° East 444 511 33,000  Level Minneapolis Center
Mon 08:19:23 PM 39.8944 -97.5983 73° East 444 511 33,000  Level Minneapolis Center
Mon 08:20:24 PM 39.9267 -97.4436 75° East 443 510 33,000  Level Minneapolis Center
Mon 08:21:26 PM 39.9617 -97.2975 73° East 444 511 33,000  Level Minneapolis Center
Mon 08:22:28 PM 39.9950 -97.1414 74° East 444 511 33,000  Level Minneapolis Center
Mon 08:23:30 PM 40.0328 -96.9878 72° East 445 512 33,000  Level Minneapolis Center
Mon 08:24:31 PM 40.0719 -96.7983 75° East 449 517 33,000  Level Minneapolis Center
Mon 08:26:35 PM 40.1411 -96.4872 74° East 448 516 33,000  Level Minneapolis Center
Mon 08:27:37 PM 40.1739 -96.3297 75° East 450 518 33,000  Level Minneapolis Center
Mon 08:28:39 PM 40.2142 -96.1758 71° East 449 517 33,000  Level Minneapolis Center
Mon 08:29:40 PM 40.2753 -96.0347 60° Northeast 448 516 33,000  Level Minneapolis Center
Mon 08:30:42 PM 40.3292 -95.8861 65° Northeast 449 517 33,000  Level Minneapolis Center
Mon 08:31:44 PM 40.4014 -95.7161 61° Northeast 449 517 33,000  Level Minneapolis Center
Mon 08:32:46 PM 40.4561 -95.5711 64° Northeast 449 517 33,000  Level Minneapolis Center
Mon 08:33:48 PM 40.5153 -95.4328 61° Northeast 444 511 33,000  Level Minneapolis Center
Mon 08:34:50 PM 40.5714 -95.2869 63° Northeast 444 511 33,000  Level Minneapolis Center
Mon 08:35:51 PM 40.6303 -95.1458 61° Northeast 444 511 33,000  Level Minneapolis Center
Mon 08:36:53 PM 40.6850 -94.9989 64° Northeast 445 512 33,000  Level Minneapolis Center
Mon 08:37:55 PM 40.7547 -94.8269 62° Northeast 445 512 33,000  Level Minneapolis Center
Mon 08:38:57 PM 40.8108 -94.6797 63° Northeast 447 514 33,000 -145 Level Minneapolis Center
Mon 08:39:59 PM 40.8703 -94.5303 62° Northeast 449 517 32,700 -629 Descending Minneapolis Center
Mon 08:41:01 PM 40.9300 -94.3839 62° Northeast 451 519 31,700 -823 Descending Minneapolis Center
Mon 08:42:03 PM 40.9856 -94.2403 63° Northeast 451 519 31,000 -339 Descending Minneapolis Center
Mon 08:43:05 PM 41.0353 -94.1028 64° Northeast 430 495 31,000  Level Minneapolis Center
Mon 08:44:07 PM 41.0944 -93.9394 64° Northeast 419 482 31,000  Level Minneapolis Center
Mon 08:45:08 PM 41.1511 -93.8014 61° Northeast 419 482 31,000  Level Minneapolis Center
Mon 08:46:10 PM 41.2019 -93.6608 64° Northeast 420 483 31,000 -194 Level Minneapolis Center
Mon 08:47:12 PM 41.2558 -93.5208 63° Northeast 421 484 30,600 -919 Descending Minneapolis Center
Mon 08:48:14 PM 41.3094 -93.3833 63° Northeast 422 486 29,100 -1,452 Descending Minneapolis Center
Mon 08:49:16 PM 41.3575 -93.2486 65° Northeast 413 475 27,600 -1,597 Descending Minneapolis Center
Mon 08:50:18 PM 41.4161 -93.0903 64° Northeast 406 467 25,800 -1,645 Descending Minneapolis Center
Mon 08:51:20 PM 41.4606 -92.9650 65° Northeast 396 456 24,200 -1,584 Descending Minneapolis Center
Mon 08:52:23 PM 41.5069 -92.8433 63° Northeast 385 443 22,500 -1,632 Descending Minneapolis Center
Mon 08:53:25 PM 41.5492 -92.7244 65° Northeast 373 429 20,800 -1,645 Descending Minneapolis Center
Mon 08:54:27 PM 41.5931 -92.6103 63° Northeast 358 412 19,100 -1,839 Descending Minneapolis Center
Mon 08:55:29 PM 41.6397 -92.4764 65° Northeast 340 391 17,000 -1,887 Descending Minneapolis Center
Mon 08:56:31 PM 41.6806 -92.3722 62° Northeast 331 381 15,200 -1,597 Descending Minneapolis Center
Mon 08:57:33 PM 41.7167 -92.2644 66° East 326 375 13,700 -1,452 Descending Minneapolis Center
Mon 08:58:35 PM 41.7325 -92.1558 79° East 309 356 12,200 -1,452 Descending Minneapolis Center
Mon 08:59:37 PM 41.7453 -92.0444 81° East 305 351 10,700 -1,597 Descending Minneapolis Center
Mon 09:00:39 PM 41.7508 -91.9144 87° East 299 344 8,900 -1,548 Descending Minneapolis Center
Mon 09:01:41 PM 41.7408 -91.8078 97° East 297 342 7,500 -1,065 Descending Minneapolis Center
Mon 09:02:43 PM 41.7289 -91.6889 98° East 292 336 6,700 -1,320 Descending Minneapolis Center
Mon 09:04:11 PM 41.7433 -91.5917 79° East 228 262 4,200 -1,360 Descending Chicago Center
Mon 09:05:13 PM 41.7931 -91.5922 360° North 198 228 3,300 -581 Descending Chicago Center
Mon 09:06:15 PM 41.8378 -91.5867 North 177 204 3,000 -435 Descending Chicago Center
Mon 09:07:17 PM 41.8767 -91.6058 340° North 167 192 2,400 -774 Descending Chicago Center
Mon 09:08:19 PM 41.8836 -91.6597 280° West 158 182 1,400 -537 Descending Chicago Center
Mon 09:09:20 PM 41.8844 -91.7142 271° West 156 180 1,300 -98 Descending Chicago Center

Login

Don't have an account? Register now (free) for customized features, flight alerts, and more!